sensor_id;sensor_type;location;lat;lon;timestamp;temperature;humidity
42147;DHT22;27815;43.410;11.852;2023-02-12T06:04:28;-3276.20;53.00
42147;DHT22;27815;43.410;11.852;2023-02-12T06:23:24;-3276.20;52.80
42147;DHT22;27815;43.410;11.852;2023-02-12T07:02:33;-3276.20;53.80
42147;DHT22;27815;43.410;11.852;2023-02-12T07:11:59;-3276.20;53.40
42147;DHT22;27815;43.410;11.852;2023-02-12T07:16:16;-3276.20;53.40
42147;DHT22;27815;43.410;11.852;2023-02-12T07:20:42;-3276.30;53.40
42147;DHT22;27815;43.410;11.852;2023-02-12T07:25:19;-3276.40;53.50
42147;DHT22;27815;43.410;11.852;2023-02-12T07:29:47;-3276.60;53.30
42147;DHT22;27815;43.410;11.852;2023-02-12T07:34:08;0.00;53.80
42147;DHT22;27815;43.410;11.852;2023-02-12T07:38:29;0.10;53.90
42147;DHT22;27815;43.410;11.852;2023-02-12T07:42:54;0.30;54.00
42147;DHT22;27815;43.410;11.852;2023-02-12T07:47:17;0.60;53.80
42147;DHT22;27815;43.410;11.852;2023-02-12T07:51:33;1.00;53.30
42147;DHT22;27815;43.410;11.852;2023-02-12T07:55:54;1.30;52.90
42147;DHT22;27815;43.410;11.852;2023-02-12T07:59:58;1.50;52.50
42147;DHT22;27815;43.410;11.852;2023-02-12T08:04:13;1.60;52.40
42147;DHT22;27815;43.410;11.852;2023-02-12T08:08:17;1.70;52.50
42147;DHT22;27815;43.410;11.852;2023-02-12T08:12:34;1.80;52.40
42147;DHT22;27815;43.410;11.852;2023-02-12T08:16:51;2.00;52.50
42147;DHT22;27815;43.410;11.852;2023-02-12T08:21:12;2.30;52.20
42147;DHT22;27815;43.410;11.852;2023-02-12T08:25:29;2.80;52.00
42147;DHT22;27815;43.410;11.852;2023-02-12T08:29:42;3.20;51.60
42147;DHT22;27815;43.410;11.852;2023-02-12T08:34:01;3.50;51.30
42147;DHT22;27815;43.410;11.852;2023-02-12T08:38:14;3.70;51.20
42147;DHT22;27815;43.410;11.852;2023-02-12T08:42:31;3.90;51.10
42147;DHT22;27815;43.410;11.852;2023-02-12T08:46:50;4.10;50.90
42147;DHT22;27815;43.410;11.852;2023-02-12T08:51:13;4.60;50.60
42147;DHT22;27815;43.410;11.852;2023-02-12T08:55:16;4.90;50.20
42147;DHT22;27815;43.410;11.852;2023-02-12T08:59:33;5.00;50.10
42147;DHT22;27815;43.410;11.852;2023-02-12T09:03:51;5.00;50.30
42147;DHT22;27815;43.410;11.852;2023-02-12T09:08:08;5.10;50.30
42147;DHT22;27815;43.410;11.852;2023-02-12T09:12:27;5.40;50.10
42147;DHT22;27815;43.410;11.852;2023-02-12T09:16:36;5.50;50.00
42147;DHT22;27815;43.410;11.852;2023-02-12T09:21:10;5.50;50.10
42147;DHT22;27815;43.410;11.852;2023-02-12T09:25:27;5.60;50.10
42147;DHT22;27815;43.410;11.852;2023-02-12T09:29:37;6.00;49.80
42147;DHT22;27815;43.410;11.852;2023-02-12T09:33:57;6.10;49.60
42147;DHT22;27815;43.410;11.852;2023-02-12T09:38:20;6.30;49.30
42147;DHT22;27815;43.410;11.852;2023-02-12T09:51:29;6.80;48.90
42147;DHT22;27815;43.410;11.852;2023-02-12T09:55:37;7.00;48.80
42147;DHT22;27815;43.410;11.852;2023-02-12T10:00:03;7.50;48.30
42147;DHT22;27815;43.410;11.852;2023-02-12T10:04:22;7.60;47.80
42147;DHT22;27815;43.410;11.852;2023-02-12T10:27:38;9.10;45.60
42147;DHT22;27815;43.410;11.852;2023-02-12T10:32:16;9.40;44.20
42147;DHT22;27815;43.410;11.852;2023-02-12T10:37:01;9.70;43.50
42147;DHT22;27815;43.410;11.852;2023-02-12T10:41:21;10.10;41.00
42147;DHT22;27815;43.410;11.852;2023-02-12T10:45:41;10.40;39.10
42147;DHT22;27815;43.410;11.852;2023-02-12T10:50:00;10.60;37.90
42147;DHT22;27815;43.410;11.852;2023-02-12T10:54:40;10.90;37.70
42147;DHT22;27815;43.410;11.852;2023-02-12T10:59:45;11.40;36.80
42147;DHT22;27815;43.410;11.852;2023-02-12T11:04:40;11.50;35.50
42147;DHT22;27815;43.410;11.852;2023-02-12T11:14:06;11.90;33.50
42147;DHT22;27815;43.410;11.852;2023-02-12T11:18:26;12.10;33.40
42147;DHT22;27815;43.410;11.852;2023-02-12T11:23:02;12.30;32.20
42147;DHT22;27815;43.410;11.852;2023-02-12T11:27:25;12.60;32.60
42147;DHT22;27815;43.410;11.852;2023-02-12T11:32:00;12.90;32.00
42147;DHT22;27815;43.410;11.852;2023-02-12T11:36:23;13.10;31.30
42147;DHT22;27815;43.410;11.852;2023-02-12T11:40:45;13.20;31.50
42147;DHT22;27815;43.410;11.852;2023-02-12T11:44:52;13.30;30.40
42147;DHT22;27815;43.410;11.852;2023-02-12T11:49:18;13.60;31.00
42147;DHT22;27815;43.410;11.852;2023-02-12T11:53:41;13.70;30.40
42147;DHT22;27815;43.410;11.852;2023-02-12T11:57:53;13.80;30.80
42147;DHT22;27815;43.410;11.852;2023-02-12T12:02:27;14.10;30.80
42147;DHT22;27815;43.410;11.852;2023-02-12T12:06:59;14.30;30.80
42147;DHT22;27815;43.410;11.852;2023-02-12T12:16:12;14.20;29.70
42147;DHT22;27815;43.410;11.852;2023-02-12T12:20:54;14.30;29.20
42147;DHT22;27815;43.410;11.852;2023-02-12T12:29:51;14.60;30.10
42147;DHT22;27815;43.410;11.852;2023-02-12T12:49:12;15.10;29.80
42147;DHT22;27815;43.410;11.852;2023-02-12T13:28:42;15.10;30.70
42147;DHT22;27815;43.410;11.852;2023-02-12T23:55:56;7.00;50.90
